This is the latest recevied weather packets stored in our database for station/object K1KOF. If no packets are shown the sender has not sent any weather packets the latest 10 day(s).
| Time | Temp. | Humidity | Pressure | Rain* | Wind** | Luminosity | Snow |
|---|---|---|---|---|---|---|---|
| 1778184266 | 26.11° C | 75% | 1019.1 hPa | 0 mm | - | 618 W/m² | - |
| 1778183962 | 25.56° C | 78% | 1019.2 hPa | 0 mm | - | 553 W/m² | - |
| 1778183660 | 25.56° C | 78% | 1019.3 hPa | 0 mm | - | 243 W/m² | - |
| 1778183357 | 25.56° C | 78% | 1019.5 hPa | 0 mm | - | 294 W/m² | - |
| 1778183053 | 26.67° C | 75% | 1019.3 hPa | 0 mm | - | 278 W/m² | - |
| 1778182749 | 25.56° C | 78% | 1019.6 hPa | 0 mm | - | 462 W/m² | - |
| 1778182447 | 26.11° C | 76% | 1019.3 hPa | 0 mm | - | 206 W/m² | - |
| 1778182143 | 26.11° C | 77% | 1019.5 hPa | 0 mm | - | 613 W/m² | - |
| 1778181839 | 25.56° C | 77% | 1019.6 hPa | 0 mm | - | 670 W/m² | - |
| 1778181536 | 25° C | 80% | 1019.8 hPa | 0 mm | - | 851 W/m² | - |
| 1778181232 | 24.44° C | 81% | 1019.8 hPa | 0 mm | - | 424 W/m² | - |
| 1778180929 | 24.44° C | 82% | 1019.6 hPa | 0 mm | - | 870 W/m² | - |
| 1778180627 | 25° C | 82% | 1019.7 hPa | 0 mm | - | 210 W/m² | - |
| 1778180326 | 25° C | 81% | 1019.9 hPa | 0 mm | - | 445 W/m² | - |
| 1778180023 | 23.89° C | 82% | 1019.7 hPa | 0 mm | - | 250 W/m² | - |
| 1778179719 | 25° C | 83% | 1019.7 hPa | 0 mm | - | 259 W/m² | - |
| 1778179417 | 23.89° C | 84% | 1020 hPa | 0 mm | - | 669 W/m² | - |
| 1778179113 | 23.89° C | 84% | 1019.8 hPa | 0 mm | - | 203 W/m² | - |
| 1778178811 | 23.89° C | 85% | 1019.8 hPa | 0 mm | - | 187 W/m² | - |
| 1778178509 | 24.44° C | 83% | 1019.6 hPa | 0 mm | - | 309 W/m² | - |
| 1778178204 | 23.89° C | 85% | 1019.7 hPa | 0 mm | - | 845 W/m² | - |
| 1778177900 | 23.89° C | 83% | 1019.7 hPa | 0 mm | - | 261 W/m² | - |
| 1778177596 | 25° C | 82% | 1019.4 hPa | 0 mm | - | 688 W/m² | - |
| 1778177294 | 24.44° C | 83% | 1019.6 hPa | 0 mm | - | 847 W/m² | - |
| 1778176991 | 23.33° C | 85% | 1019.7 hPa | 0 mm | - | 829 W/m² | - |
* Rain latest hour (hover to see other rain measurements)
** Current wind speed in m/s (hover to see current wind gust speed)